sensor_id;sensor_type;location;lat;lon;timestamp;P1;durP1;ratioP1;P2;durP2;ratioP2
52432;SDS011;38352;53.244;6.594;2022-07-11T00:02:06;11.00;;;3.10;;
52432;SDS011;38352;53.244;6.594;2022-07-11T00:04:32;7.65;;;3.30;;
52432;SDS011;38352;53.244;6.594;2022-07-11T00:06:59;6.55;;;3.42;;
52432;SDS011;38352;53.244;6.594;2022-07-11T00:09:25;8.05;;;3.25;;
52432;SDS011;38352;53.244;6.594;2022-07-11T00:11:52;13.45;;;4.25;;
52432;SDS011;38352;53.244;6.594;2022-07-11T00:14:18;8.85;;;4.28;;
52432;SDS011;38352;53.244;6.594;2022-07-11T00:16:44;10.55;;;4.68;;
52432;SDS011;38352;53.244;6.594;2022-07-11T00:19:10;7.63;;;3.92;;
52432;SDS011;38352;53.244;6.594;2022-07-11T00:21:36;7.35;;;3.33;;
52432;SDS011;38352;53.244;6.594;2022-07-11T00:24:03;10.02;;;4.55;;
52432;SDS011;38352;53.244;6.594;2022-07-11T00:26:29;11.55;;;4.68;;
52432;SDS011;38352;53.244;6.594;2022-07-11T00:28:55;9.77;;;4.00;;
52432;SDS011;38352;53.244;6.594;2022-07-11T00:31:22;11.50;;;5.28;;
52432;SDS011;38352;53.244;6.594;2022-07-11T00:33:48;8.73;;;4.30;;
52432;SDS011;38352;53.244;6.594;2022-07-11T00:36:14;10.52;;;4.30;;
52432;SDS011;38352;53.244;6.594;2022-07-11T00:38:40;11.05;;;4.28;;
52432;SDS011;38352;53.244;6.594;2022-07-11T00:41:06;7.40;;;4.45;;
52432;SDS011;38352;53.244;6.594;2022-07-11T00:43:33;9.60;;;4.70;;
52432;SDS011;38352;53.244;6.594;2022-07-11T00:46:00;7.70;;;4.32;;
52432;SDS011;38352;53.244;6.594;2022-07-11T00:48:26;8.07;;;3.72;;
52432;SDS011;38352;53.244;6.594;2022-07-11T00:50:52;8.98;;;3.97;;
52432;SDS011;38352;53.244;6.594;2022-07-11T00:53:19;6.85;;;3.72;;
52432;SDS011;38352;53.244;6.594;2022-07-11T00:55:46;9.77;;;4.15;;
52432;SDS011;38352;53.244;6.594;2022-07-11T00:58:12;10.60;;;3.72;;
52432;SDS011;38352;53.244;6.594;2022-07-11T01:00:39;7.10;;;3.67;;
52432;SDS011;38352;53.244;6.594;2022-07-11T01:03:05;7.35;;;3.72;;
52432;SDS011;38352;53.244;6.594;2022-07-11T01:05:32;10.15;;;4.18;;
52432;SDS011;38352;53.244;6.594;2022-07-11T01:07:58;10.38;;;4.78;;
52432;SDS011;38352;53.244;6.594;2022-07-11T01:10:24;7.32;;;4.13;;
52432;SDS011;38352;53.244;6.594;2022-07-11T01:12:50;6.97;;;3.95;;
52432;SDS011;38352;53.244;6.594;2022-07-11T01:15:16;6.95;;;4.00;;
52432;SDS011;38352;53.244;6.594;2022-07-11T01:17:42;10.25;;;4.28;;
52432;SDS011;38352;53.244;6.594;2022-07-11T01:20:09;6.45;;;3.95;;
52432;SDS011;38352;53.244;6.594;2022-07-11T01:22:39;9.05;;;4.40;;
52432;SDS011;38352;53.244;6.594;2022-07-11T01:25:06;7.47;;;4.07;;
52432;SDS011;38352;53.244;6.594;2022-07-11T01:27:32;7.70;;;4.18;;
52432;SDS011;38352;53.244;6.594;2022-07-11T01:29:58;10.13;;;4.60;;
52432;SDS011;38352;53.244;6.594;2022-07-11T01:32:24;8.55;;;4.35;;
52432;SDS011;38352;53.244;6.594;2022-07-11T01:34:50;8.45;;;4.40;;
52432;SDS011;38352;53.244;6.594;2022-07-11T01:37:16;8.10;;;3.75;;
52432;SDS011;38352;53.244;6.594;2022-07-11T01:39:42;6.30;;;3.90;;
52432;SDS011;38352;53.244;6.594;2022-07-11T01:42:08;7.10;;;4.47;;
52432;SDS011;38352;53.244;6.594;2022-07-11T01:44:34;6.97;;;3.88;;
52432;SDS011;38352;53.244;6.594;2022-07-11T01:47:00;8.20;;;3.72;;
52432;SDS011;38352;53.244;6.594;2022-07-11T01:49:26;6.55;;;3.95;;
52432;SDS011;38352;53.244;6.594;2022-07-11T01:51:55;7.03;;;4.40;;
52432;SDS011;38352;53.244;6.594;2022-07-11T01:54:21;11.95;;;4.82;;
52432;SDS011;38352;53.244;6.594;2022-07-11T01:56:47;8.38;;;4.47;;
52432;SDS011;38352;53.244;6.594;2022-07-11T01:59:13;9.00;;;4.43;;
52432;SDS011;38352;53.244;6.594;2022-07-11T02:01:39;7.22;;;3.92;;
52432;SDS011;38352;53.244;6.594;2022-07-11T02:04:05;9.43;;;4.80;;
52432;SDS011;38352;53.244;6.594;2022-07-11T02:06:31;7.78;;;3.90;;
52432;SDS011;38352;53.244;6.594;2022-07-11T02:08:57;8.77;;;4.35;;
52432;SDS011;38352;53.244;6.594;2022-07-11T02:11:24;8.00;;;3.70;;
52432;SDS011;38352;53.244;6.594;2022-07-11T02:13:50;7.60;;;3.30;;
52432;SDS011;38352;53.244;6.594;2022-07-11T02:16:16;9.50;;;4.22;;
52432;SDS011;38352;53.244;6.594;2022-07-11T02:18:42;8.23;;;3.75;;
52432;SDS011;38352;53.244;6.594;2022-07-11T02:21:08;6.68;;;3.25;;
52432;SDS011;38352;53.244;6.594;2022-07-11T02:23:34;8.77;;;3.58;;
52432;SDS011;38352;53.244;6.594;2022-07-11T02:26:00;6.90;;;3.53;;
52432;SDS011;38352;53.244;6.594;2022-07-11T02:28:26;8.07;;;4.20;;
52432;SDS011;38352;53.244;6.594;2022-07-11T02:30:52;6.72;;;3.50;;
52432;SDS011;38352;53.244;6.594;2022-07-11T02:33:18;8.65;;;3.72;;
52432;SDS011;38352;53.244;6.594;2022-07-11T02:35:45;7.43;;;3.88;;
52432;SDS011;38352;53.244;6.594;2022-07-11T02:38:11;6.32;;;3.40;;
52432;SDS011;38352;53.244;6.594;2022-07-11T02:40:40;8.55;;;3.95;;
52432;SDS011;38352;53.244;6.594;2022-07-11T02:43:06;7.20;;;3.25;;
52432;SDS011;38352;53.244;6.594;2022-07-11T02:45:33;7.72;;;3.50;;
52432;SDS011;38352;53.244;6.594;2022-07-11T02:48:01;6.55;;;3.22;;
52432;SDS011;38352;53.244;6.594;2022-07-11T02:50:27;4.88;;;2.90;;
52432;SDS011;38352;53.244;6.594;2022-07-11T02:52:53;4.90;;;3.08;;
52432;SDS011;38352;53.244;6.594;2022-07-11T02:55:19;7.05;;;3.15;;
52432;SDS011;38352;53.244;6.594;2022-07-11T02:57:45;8.05;;;3.40;;
52432;SDS011;38352;53.244;6.594;2022-07-11T03:00:13;7.43;;;3.42;;
52432;SDS011;38352;53.244;6.594;2022-07-11T03:02:40;7.05;;;2.92;;
52432;SDS011;38352;53.244;6.594;2022-07-11T03:05:07;6.13;;;3.08;;
52432;SDS011;38352;53.244;6.594;2022-07-11T03:07:33;6.88;;;3.15;;
52432;SDS011;38352;53.244;6.594;2022-07-11T03:09:59;6.72;;;3.20;;
52432;SDS011;38352;53.244;6.594;2022-07-11T03:12:25;7.00;;;3.42;;
52432;SDS011;38352;53.244;6.594;2022-07-11T03:14:52;6.72;;;3.03;;
52432;SDS011;38352;53.244;6.594;2022-07-11T03:17:18;8.88;;;3.70;;
52432;SDS011;38352;53.244;6.594;2022-07-11T03:19:45;7.65;;;3.40;;
52432;SDS011;38352;53.244;6.594;2022-07-11T03:22:12;8.10;;;3.10;;
52432;SDS011;38352;53.244;6.594;2022-07-11T03:24:38;6.75;;;2.80;;
52432;SDS011;38352;53.244;6.594;2022-07-11T03:27:06;7.15;;;2.92;;
52432;SDS011;38352;53.244;6.594;2022-07-11T03:29:32;5.65;;;2.15;;
52432;SDS011;38352;53.244;6.594;2022-07-11T03:31:58;6.32;;;2.58;;
52432;SDS011;38352;53.244;6.594;2022-07-11T03:34:24;4.03;;;2.10;;
52432;SDS011;38352;53.244;6.594;2022-07-11T03:36:51;3.30;;;1.98;;
52432;SDS011;38352;53.244;6.594;2022-07-11T03:39:17;4.20;;;2.03;;
52432;SDS011;38352;53.244;6.594;2022-07-11T03:41:43;4.60;;;1.73;;
52432;SDS011;38352;53.244;6.594;2022-07-11T03:44:09;7.05;;;2.28;;
52432;SDS011;38352;53.244;6.594;2022-07-11T03:46:35;5.10;;;1.80;;
52432;SDS011;38352;53.244;6.594;2022-07-11T03:49:02;8.90;;;2.13;;
52432;SDS011;38352;53.244;6.594;2022-07-11T03:51:28;4.40;;;1.73;;
52432;SDS011;38352;53.244;6.594;2022-07-11T03:53:54;4.88;;;2.00;;
52432;SDS011;38352;53.244;6.594;2022-07-11T03:56:20;5.22;;;1.77;;
52432;SDS011;38352;53.244;6.594;2022-07-11T03:58:48;4.82;;;1.73;;
52432;SDS011;38352;53.244;6.594;2022-07-11T04:01:14;5.30;;;2.03;;
52432;SDS011;38352;53.244;6.594;2022-07-11T04:03:41;5.53;;;1.85;;
52432;SDS011;38352;53.244;6.594;2022-07-11T04:06:07;4.63;;;2.15;;
52432;SDS011;38352;53.244;6.594;2022-07-11T04:08:33;4.93;;;2.03;;
52432;SDS011;38352;53.244;6.594;2022-07-11T04:10:59;6.05;;;2.75;;
52432;SDS011;38352;53.244;6.594;2022-07-11T04:13:25;5.30;;;2.10;;
52432;SDS011;38352;53.244;6.594;2022-07-11T04:15:51;5.10;;;1.98;;
52432;SDS011;38352;53.244;6.594;2022-07-11T04:18:18;7.60;;;2.00;;
52432;SDS011;38352;53.244;6.594;2022-07-11T04:20:44;4.32;;;1.77;;
52432;SDS011;38352;53.244;6.594;2022-07-11T04:23:10;8.40;;;1.90;;
52432;SDS011;38352;53.244;6.594;2022-07-11T04:25:36;6.60;;;1.60;;
52432;SDS011;38352;53.244;6.594;2022-07-11T04:28:02;3.40;;;1.48;;
52432;SDS011;38352;53.244;6.594;2022-07-11T04:30:28;3.50;;;1.10;;
52432;SDS011;38352;53.244;6.594;2022-07-11T04:32:54;3.65;;;1.58;;
52432;SDS011;38352;53.244;6.594;2022-07-11T04:35:21;3.33;;;1.38;;
52432;SDS011;38352;53.244;6.594;2022-07-11T04:37:48;3.85;;;1.20;;
52432;SDS011;38352;53.244;6.594;2022-07-11T04:40:14;3.03;;;1.23;;
52432;SDS011;38352;53.244;6.594;2022-07-11T04:42:42;2.03;;;1.02;;
52432;SDS011;38352;53.244;6.594;2022-07-11T04:45:08;2.70;;;1.13;;
52432;SDS011;38352;53.244;6.594;2022-07-11T04:47:34;5.35;;;1.58;;
52432;SDS011;38352;53.244;6.594;2022-07-11T04:50:01;3.67;;;1.00;;
52432;SDS011;38352;53.244;6.594;2022-07-11T04:52:27;1.73;;;0.90;;
52432;SDS011;38352;53.244;6.594;2022-07-11T04:54:53;3.13;;;1.30;;
52432;SDS011;38352;53.244;6.594;2022-07-11T04:57:20;2.30;;;1.00;;
52432;SDS011;38352;53.244;6.594;2022-07-11T04:59:46;3.08;;;1.08;;
52432;SDS011;38352;53.244;6.594;2022-07-11T05:02:12;3.80;;;1.33;;
52432;SDS011;38352;53.244;6.594;2022-07-11T05:04:38;4.75;;;0.80;;
52432;SDS011;38352;53.244;6.594;2022-07-11T05:07:04;2.65;;;0.88;;
52432;SDS011;38352;53.244;6.594;2022-07-11T05:09:30;2.85;;;1.05;;
52432;SDS011;38352;53.244;6.594;2022-07-11T05:11:56;2.60;;;1.00;;
52432;SDS011;38352;53.244;6.594;2022-07-11T05:14:22;5.10;;;0.82;;
52432;SDS011;38352;53.244;6.594;2022-07-11T05:16:48;4.03;;;1.10;;
52432;SDS011;38352;53.244;6.594;2022-07-11T05:19:14;2.72;;;1.20;;
52432;SDS011;38352;53.244;6.594;2022-07-11T05:21:40;3.53;;;0.80;;
52432;SDS011;38352;53.244;6.594;2022-07-11T05:24:06;1.95;;;0.50;;
52432;SDS011;38352;53.244;6.594;2022-07-11T05:26:33;2.65;;;0.70;;
52432;SDS011;38352;53.244;6.594;2022-07-11T05:28:59;1.55;;;0.60;;
52432;SDS011;38352;53.244;6.594;2022-07-11T05:31:25;1.42;;;0.70;;
52432;SDS011;38352;53.244;6.594;2022-07-11T05:33:51;2.22;;;0.70;;
52432;SDS011;38352;53.244;6.594;2022-07-11T05:36:17;1.30;;;0.60;;
52432;SDS011;38352;53.244;6.594;2022-07-11T05:38:43;2.80;;;0.50;;
52432;SDS011;38352;53.244;6.594;2022-07-11T05:41:09;2.33;;;0.73;;
52432;SDS011;38352;53.244;6.594;2022-07-11T05:43:35;1.65;;;0.73;;
52432;SDS011;38352;53.244;6.594;2022-07-11T05:46:05;1.20;;;0.80;;
52432;SDS011;38352;53.244;6.594;2022-07-11T05:48:31;1.20;;;0.52;;
52432;SDS011;38352;53.244;6.594;2022-07-11T05:50:57;2.05;;;0.70;;
52432;SDS011;38352;53.244;6.594;2022-07-11T05:53:23;2.08;;;0.60;;
52432;SDS011;38352;53.244;6.594;2022-07-11T05:55:49;1.02;;;0.60;;
52432;SDS011;38352;53.244;6.594;2022-07-11T05:58:15;1.67;;;0.50;;
52432;SDS011;38352;53.244;6.594;2022-07-11T06:00:41;3.05;;;0.60;;
52432;SDS011;38352;53.244;6.594;2022-07-11T06:03:07;1.80;;;0.73;;
52432;SDS011;38352;53.244;6.594;2022-07-11T06:05:33;1.65;;;0.70;;
52432;SDS011;38352;53.244;6.594;2022-07-11T06:07:59;1.85;;;0.70;;
52432;SDS011;38352;53.244;6.594;2022-07-11T06:10:44;1.75;;;0.68;;
52432;SDS011;38352;53.244;6.594;2022-07-11T06:13:10;4.25;;;0.80;;
52432;SDS011;38352;53.244;6.594;2022-07-11T06:15:36;4.82;;;0.75;;
52432;SDS011;38352;53.244;6.594;2022-07-11T06:18:03;2.15;;;0.82;;
52432;SDS011;38352;53.244;6.594;2022-07-11T06:20:29;3.17;;;0.60;;
52432;SDS011;38352;53.244;6.594;2022-07-11T06:22:55;1.13;;;0.57;;
52432;SDS011;38352;53.244;6.594;2022-07-11T06:25:21;2.28;;;1.02;;
52432;SDS011;38352;53.244;6.594;2022-07-11T06:27:47;2.10;;;0.70;;
52432;SDS011;38352;53.244;6.594;2022-07-11T06:30:13;3.22;;;0.93;;
52432;SDS011;38352;53.244;6.594;2022-07-11T06:32:39;1.85;;;0.85;;
52432;SDS011;38352;53.244;6.594;2022-07-11T06:35:06;2.45;;;0.98;;
52432;SDS011;38352;53.244;6.594;2022-07-11T06:37:32;2.65;;;1.08;;
52432;SDS011;38352;53.244;6.594;2022-07-11T06:39:59;3.28;;;1.10;;
52432;SDS011;38352;53.244;6.594;2022-07-11T06:42:25;3.47;;;0.80;;
52432;SDS011;38352;53.244;6.594;2022-07-11T06:44:51;2.28;;;0.75;;
52432;SDS011;38352;53.244;6.594;2022-07-11T06:47:17;1.42;;;0.52;;
52432;SDS011;38352;53.244;6.594;2022-07-11T06:49:43;1.83;;;0.80;;
52432;SDS011;38352;53.244;6.594;2022-07-11T06:52:09;2.45;;;0.70;;
52432;SDS011;38352;53.244;6.594;2022-07-11T06:54:36;1.48;;;0.60;;
52432;SDS011;38352;53.244;6.594;2022-07-11T06:57:02;1.83;;;0.85;;
52432;SDS011;38352;53.244;6.594;2022-07-11T06:59:28;2.47;;;1.10;;
52432;SDS011;38352;53.244;6.594;2022-07-11T07:01:54;1.98;;;1.00;;
52432;SDS011;38352;53.244;6.594;2022-07-11T07:04:20;1.30;;;0.70;;
52432;SDS011;38352;53.244;6.594;2022-07-11T07:06:46;2.25;;;1.17;;
52432;SDS011;38352;53.244;6.594;2022-07-11T07:09:12;3.00;;;0.90;;
52432;SDS011;38352;53.244;6.594;2022-07-11T07:11:38;1.95;;;0.65;;
52432;SDS011;38352;53.244;6.594;2022-07-11T07:14:05;2.10;;;0.75;;
52432;SDS011;38352;53.244;6.594;2022-07-11T07:16:31;2.25;;;0.98;;
52432;SDS011;38352;53.244;6.594;2022-07-11T07:18:57;3.67;;;0.93;;
52432;SDS011;38352;53.244;6.594;2022-07-11T07:21:23;3.15;;;1.00;;
52432;SDS011;38352;53.244;6.594;2022-07-11T07:23:51;2.08;;;0.90;;
52432;SDS011;38352;53.244;6.594;2022-07-11T07:26:17;1.52;;;0.70;;
52432;SDS011;38352;53.244;6.594;2022-07-11T07:28:43;1.17;;;0.60;;
52432;SDS011;38352;53.244;6.594;2022-07-11T07:31:10;1.08;;;0.77;;
52432;SDS011;38352;53.244;6.594;2022-07-11T07:33:37;1.15;;;0.60;;
52432;SDS011;38352;53.244;6.594;2022-07-11T07:36:03;1.75;;;0.63;;
52432;SDS011;38352;53.244;6.594;2022-07-11T07:38:29;2.55;;;0.75;;
52432;SDS011;38352;53.244;6.594;2022-07-11T07:40:55;2.35;;;0.65;;
52432;SDS011;38352;53.244;6.594;2022-07-11T07:43:21;1.58;;;0.50;;
52432;SDS011;38352;53.244;6.594;2022-07-11T07:45:47;1.15;;;0.47;;
52432;SDS011;38352;53.244;6.594;2022-07-11T07:48:13;1.10;;;0.52;;
52432;SDS011;38352;53.244;6.594;2022-07-11T07:50:39;2.00;;;0.45;;
52432;SDS011;38352;53.244;6.594;2022-07-11T07:53:07;1.23;;;0.55;;
52432;SDS011;38352;53.244;6.594;2022-07-11T07:55:33;1.00;;;0.43;;
52432;SDS011;38352;53.244;6.594;2022-07-11T07:57:59;0.35;;;0.30;;
52432;SDS011;38352;53.244;6.594;2022-07-11T08:00:25;1.77;;;0.40;;
52432;SDS011;38352;53.244;6.594;2022-07-11T08:03:09;0.32;;;0.30;;
52432;SDS011;38352;53.244;6.594;2022-07-11T08:05:36;0.35;;;0.30;;
52432;SDS011;38352;53.244;6.594;2022-07-11T08:08:02;2.75;;;0.60;;
52432;SDS011;38352;53.244;6.594;2022-07-11T08:10:29;2.30;;;0.45;;
52432;SDS011;38352;53.244;6.594;2022-07-11T08:12:55;0.30;;;0.30;;
52432;SDS011;38352;53.244;6.594;2022-07-11T08:15:21;1.40;;;0.40;;
52432;SDS011;38352;53.244;6.594;2022-07-11T08:17:47;1.23;;;0.50;;
52432;SDS011;38352;53.244;6.594;2022-07-11T08:20:13;3.03;;;0.40;;
52432;SDS011;38352;53.244;6.594;2022-07-11T08:22:39;4.97;;;0.60;;
52432;SDS011;38352;53.244;6.594;2022-07-11T08:25:06;1.65;;;0.57;;
52432;SDS011;38352;53.244;6.594;2022-07-11T08:27:32;1.63;;;0.55;;
52432;SDS011;38352;53.244;6.594;2022-07-11T08:29:58;1.17;;;0.40;;
52432;SDS011;38352;53.244;6.594;2022-07-11T08:32:25;0.40;;;0.40;;
52432;SDS011;38352;53.244;6.594;2022-07-11T08:34:51;0.47;;;0.35;;
52432;SDS011;38352;53.244;6.594;2022-07-11T08:37:17;1.20;;;0.30;;
52432;SDS011;38352;53.244;6.594;2022-07-11T08:39:43;0.30;;;0.30;;
52432;SDS011;38352;53.244;6.594;2022-07-11T08:42:09;0.80;;;0.40;;
52432;SDS011;38352;53.244;6.594;2022-07-11T08:44:35;0.30;;;0.30;;
52432;SDS011;38352;53.244;6.594;2022-07-11T08:47:02;2.47;;;0.60;;
52432;SDS011;38352;53.244;6.594;2022-07-11T08:49:29;1.05;;;0.50;;
52432;SDS011;38352;53.244;6.594;2022-07-11T08:51:56;1.58;;;0.50;;
52432;SDS011;38352;53.244;6.594;2022-07-11T08:54:22;0.40;;;0.40;;
52432;SDS011;38352;53.244;6.594;2022-07-11T08:56:48;0.45;;;0.43;;
52432;SDS011;38352;53.244;6.594;2022-07-11T08:59:17;0.38;;;0.25;;
52432;SDS011;38352;53.244;6.594;2022-07-11T09:01:44;1.40;;;0.30;;
52432;SDS011;38352;53.244;6.594;2022-07-11T09:04:11;2.25;;;0.73;;
52432;SDS011;38352;53.244;6.594;2022-07-11T09:06:39;0.65;;;0.40;;
52432;SDS011;38352;53.244;6.594;2022-07-11T09:09:05;0.90;;;0.35;;
52432;SDS011;38352;53.244;6.594;2022-07-11T09:11:50;1.25;;;0.40;;
52432;SDS011;38352;53.244;6.594;2022-07-11T09:14:20;0.43;;;0.30;;
52432;SDS011;38352;53.244;6.594;2022-07-11T09:16:54;0.68;;;0.40;;
52432;SDS011;38352;53.244;6.594;2022-07-11T09:19:21;0.70;;;0.40;;
52432;SDS011;38352;53.244;6.594;2022-07-11T09:35:21;1.02;;;0.40;;
52432;SDS011;38352;53.244;6.594;2022-07-11T09:37:47;1.38;;;0.40;;
52432;SDS011;38352;53.244;6.594;2022-07-11T09:40:14;0.50;;;0.47;;
52432;SDS011;38352;53.244;6.594;2022-07-11T09:42:50;0.52;;;0.50;;
52432;SDS011;38352;53.244;6.594;2022-07-11T09:45:16;0.30;;;0.30;;
52432;SDS011;38352;53.244;6.594;2022-07-11T09:47:46;0.50;;;0.30;;
52432;SDS011;38352;53.244;6.594;2022-07-11T09:50:13;2.63;;;0.43;;
52432;SDS011;38352;53.244;6.594;2022-07-11T09:52:42;0.70;;;0.40;;
52432;SDS011;38352;53.244;6.594;2022-07-11T09:55:09;0.68;;;0.45;;
52432;SDS011;38352;53.244;6.594;2022-07-11T09:57:36;1.15;;;0.40;;
52432;SDS011;38352;53.244;6.594;2022-07-11T10:00:03;4.15;;;0.57;;
52432;SDS011;38352;53.244;6.594;2022-07-11T10:02:30;4.43;;;0.70;;
52432;SDS011;38352;53.244;6.594;2022-07-11T10:04:57;1.92;;;0.73;;
52432;SDS011;38352;53.244;6.594;2022-07-11T10:07:23;1.17;;;0.60;;
52432;SDS011;38352;53.244;6.594;2022-07-11T10:09:50;1.13;;;0.65;;
52432;SDS011;38352;53.244;6.594;2022-07-11T10:12:16;1.60;;;0.70;;
52432;SDS011;38352;53.244;6.594;2022-07-11T10:14:42;1.08;;;0.50;;
52432;SDS011;38352;53.244;6.594;2022-07-11T10:17:14;2.72;;;0.60;;
52432;SDS011;38352;53.244;6.594;2022-07-11T10:22:38;1.33;;;0.40;;
52432;SDS011;38352;53.244;6.594;2022-07-11T10:27:36;1.33;;;0.70;;
52432;SDS011;38352;53.244;6.594;2022-07-11T10:30:04;1.13;;;0.75;;
52432;SDS011;38352;53.244;6.594;2022-07-11T10:32:31;3.42;;;0.70;;
52432;SDS011;38352;53.244;6.594;2022-07-11T10:35:10;1.88;;;0.75;;
52432;SDS011;38352;53.244;6.594;2022-07-11T10:37:47;2.15;;;0.65;;
52432;SDS011;38352;53.244;6.594;2022-07-11T10:40:14;3.20;;;0.80;;
52432;SDS011;38352;53.244;6.594;2022-07-11T10:42:41;2.58;;;1.10;;
52432;SDS011;38352;53.244;6.594;2022-07-11T10:45:08;3.42;;;1.20;;
52432;SDS011;38352;53.244;6.594;2022-07-11T10:47:39;3.17;;;0.93;;
52432;SDS011;38352;53.244;6.594;2022-07-11T10:52:48;2.78;;;1.20;;
52432;SDS011;38352;53.244;6.594;2022-07-11T10:58:06;3.55;;;0.90;;
52432;SDS011;38352;53.244;6.594;2022-07-11T11:00:34;3.17;;;1.17;;
52432;SDS011;38352;53.244;6.594;2022-07-11T11:03:01;1.25;;;0.85;;
52432;SDS011;38352;53.244;6.594;2022-07-11T11:10:52;1.77;;;0.88;;
52432;SDS011;38352;53.244;6.594;2022-07-11T11:13:18;1.63;;;0.80;;
52432;SDS011;38352;53.244;6.594;2022-07-11T11:23:29;0.60;;;0.50;;
52432;SDS011;38352;53.244;6.594;2022-07-11T11:28:30;2.63;;;0.50;;
52432;SDS011;38352;53.244;6.594;2022-07-11T11:30:57;1.05;;;0.60;;
52432;SDS011;38352;53.244;6.594;2022-07-11T11:33:28;1.10;;;0.60;;
52432;SDS011;38352;53.244;6.594;2022-07-11T11:36:01;2.13;;;1.20;;
52432;SDS011;38352;53.244;6.594;2022-07-11T11:40:55;1.45;;;0.90;;
52432;SDS011;38352;53.244;6.594;2022-07-11T11:43:21;1.23;;;0.80;;
52432;SDS011;38352;53.244;6.594;2022-07-11T11:45:48;1.77;;;1.05;;
52432;SDS011;38352;53.244;6.594;2022-07-11T11:50:59;2.35;;;0.90;;
52432;SDS011;38352;53.244;6.594;2022-07-11T11:53:26;0.80;;;0.80;;
52432;SDS011;38352;53.244;6.594;2022-07-11T11:55:52;1.73;;;0.80;;
52432;SDS011;38352;53.244;6.594;2022-07-11T11:58:18;2.83;;;0.60;;
52432;SDS011;38352;53.244;6.594;2022-07-11T12:00:53;1.83;;;0.70;;
52432;SDS011;38352;53.244;6.594;2022-07-11T12:03:19;2.03;;;0.80;;
52432;SDS011;38352;53.244;6.594;2022-07-11T12:05:55;1.92;;;0.70;;
52432;SDS011;38352;53.244;6.594;2022-07-11T12:08:27;2.63;;;0.90;;
52432;SDS011;38352;53.244;6.594;2022-07-11T12:10:54;0.98;;;0.80;;
52432;SDS011;38352;53.244;6.594;2022-07-11T12:13:20;1.83;;;0.93;;
52432;SDS011;38352;53.244;6.594;2022-07-11T12:15:46;2.55;;;1.00;;
52432;SDS011;38352;53.244;6.594;2022-07-11T12:18:37;3.03;;;1.10;;
52432;SDS011;38352;53.244;6.594;2022-07-11T12:21:10;1.17;;;0.98;;
52432;SDS011;38352;53.244;6.594;2022-07-11T12:23:36;2.42;;;0.90;;
52432;SDS011;38352;53.244;6.594;2022-07-11T12:26:02;1.63;;;0.85;;
52432;SDS011;38352;53.244;6.594;2022-07-11T12:28:29;3.00;;;0.90;;
52432;SDS011;38352;53.244;6.594;2022-07-11T12:30:55;2.92;;;0.70;;
52432;SDS011;38352;53.244;6.594;2022-07-11T12:33:22;0.88;;;0.70;;
52432;SDS011;38352;53.244;6.594;2022-07-11T12:35:52;2.80;;;0.85;;
52432;SDS011;38352;53.244;6.594;2022-07-11T12:38:18;1.67;;;1.35;;
52432;SDS011;38352;53.244;6.594;2022-07-11T12:41:04;1.75;;;0.70;;
52432;SDS011;38352;53.244;6.594;2022-07-11T12:46:30;1.83;;;0.70;;
52432;SDS011;38352;53.244;6.594;2022-07-11T12:48:56;0.50;;;0.50;;
52432;SDS011;38352;53.244;6.594;2022-07-11T12:51:31;1.08;;;0.63;;
52432;SDS011;38352;53.244;6.594;2022-07-11T12:54:00;0.57;;;0.55;;
52432;SDS011;38352;53.244;6.594;2022-07-11T12:56:27;0.93;;;0.47;;
52432;SDS011;38352;53.244;6.594;2022-07-11T12:58:53;1.00;;;0.70;;
52432;SDS011;38352;53.244;6.594;2022-07-11T13:01:19;2.88;;;0.80;;
52432;SDS011;38352;53.244;6.594;2022-07-11T13:03:45;0.57;;;0.57;;
52432;SDS011;38352;53.244;6.594;2022-07-11T13:06:11;1.80;;;0.70;;
52432;SDS011;38352;53.244;6.594;2022-07-11T13:08:37;1.88;;;0.90;;
52432;SDS011;38352;53.244;6.594;2022-07-11T13:11:11;1.73;;;0.80;;
52432;SDS011;38352;53.244;6.594;2022-07-11T13:13:37;1.38;;;0.70;;
52432;SDS011;38352;53.244;6.594;2022-07-11T13:16:03;0.77;;;0.68;;
52432;SDS011;38352;53.244;6.594;2022-07-11T13:18:30;0.95;;;0.85;;
52432;SDS011;38352;53.244;6.594;2022-07-11T13:20:56;2.45;;;0.90;;
52432;SDS011;38352;53.244;6.594;2022-07-11T13:23:23;1.63;;;0.90;;
52432;SDS011;38352;53.244;6.594;2022-07-11T13:25:49;2.42;;;0.90;;
52432;SDS011;38352;53.244;6.594;2022-07-11T13:28:15;2.28;;;0.90;;
52432;SDS011;38352;53.244;6.594;2022-07-11T13:30:41;1.05;;;0.90;;
52432;SDS011;38352;53.244;6.594;2022-07-11T13:33:07;1.38;;;0.93;;
52432;SDS011;38352;53.244;6.594;2022-07-11T13:35:33;3.50;;;1.20;;
52432;SDS011;38352;53.244;6.594;2022-07-11T13:37:59;1.92;;;0.98;;
52432;SDS011;38352;53.244;6.594;2022-07-11T13:40:25;2.85;;;1.70;;
52432;SDS011;38352;53.244;6.594;2022-07-11T13:42:53;3.00;;;1.67;;
52432;SDS011;38352;53.244;6.594;2022-07-11T13:45:20;3.20;;;1.67;;
52432;SDS011;38352;53.244;6.594;2022-07-11T13:47:47;2.85;;;1.45;;
52432;SDS011;38352;53.244;6.594;2022-07-11T13:50:14;2.50;;;1.63;;
52432;SDS011;38352;53.244;6.594;2022-07-11T13:52:40;2.15;;;1.50;;
52432;SDS011;38352;53.244;6.594;2022-07-11T13:55:06;2.28;;;1.33;;
52432;SDS011;38352;53.244;6.594;2022-07-11T13:57:35;2.35;;;1.35;;
52432;SDS011;38352;53.244;6.594;2022-07-11T14:00:02;3.05;;;1.50;;
52432;SDS011;38352;53.244;6.594;2022-07-11T14:02:29;1.50;;;1.13;;
52432;SDS011;38352;53.244;6.594;2022-07-11T14:04:56;2.03;;;1.10;;
52432;SDS011;38352;53.244;6.594;2022-07-11T14:07:22;1.42;;;1.10;;
52432;SDS011;38352;53.244;6.594;2022-07-11T14:09:48;4.28;;;1.25;;
52432;SDS011;38352;53.244;6.594;2022-07-11T14:12:14;2.88;;;1.30;;
52432;SDS011;38352;53.244;6.594;2022-07-11T14:14:41;2.30;;;1.30;;
52432;SDS011;38352;53.244;6.594;2022-07-11T14:17:07;3.03;;;1.50;;
52432;SDS011;38352;53.244;6.594;2022-07-11T14:19:34;2.08;;;1.30;;
52432;SDS011;38352;53.244;6.594;2022-07-11T14:22:02;3.88;;;1.90;;
52432;SDS011;38352;53.244;6.594;2022-07-11T14:24:32;2.55;;;1.50;;
52432;SDS011;38352;53.244;6.594;2022-07-11T14:26:59;3.00;;;1.55;;
52432;SDS011;38352;53.244;6.594;2022-07-11T14:29:25;1.48;;;1.10;;
52432;SDS011;38352;53.244;6.594;2022-07-11T14:31:54;1.73;;;1.27;;
52432;SDS011;38352;53.244;6.594;2022-07-11T14:34:20;1.83;;;1.30;;
52432;SDS011;38352;53.244;6.594;2022-07-11T14:36:46;1.90;;;1.13;;
52432;SDS011;38352;53.244;6.594;2022-07-11T14:39:13;2.13;;;1.40;;
52432;SDS011;38352;53.244;6.594;2022-07-11T14:41:39;1.38;;;1.20;;
52432;SDS011;38352;53.244;6.594;2022-07-11T14:44:06;3.10;;;1.67;;
52432;SDS011;38352;53.244;6.594;2022-07-11T14:46:32;3.42;;;1.83;;
52432;SDS011;38352;53.244;6.594;2022-07-11T14:48:58;2.92;;;1.45;;
52432;SDS011;38352;53.244;6.594;2022-07-11T14:51:25;1.70;;;1.23;;
52432;SDS011;38352;53.244;6.594;2022-07-11T14:53:53;3.15;;;2.10;;
52432;SDS011;38352;53.244;6.594;2022-07-11T14:56:19;2.38;;;1.48;;
52432;SDS011;38352;53.244;6.594;2022-07-11T14:58:45;4.15;;;1.40;;
52432;SDS011;38352;53.244;6.594;2022-07-11T15:01:12;3.13;;;1.70;;
52432;SDS011;38352;53.244;6.594;2022-07-11T15:03:38;1.77;;;1.42;;
52432;SDS011;38352;53.244;6.594;2022-07-11T15:06:09;3.47;;;2.20;;
52432;SDS011;38352;53.244;6.594;2022-07-11T15:08:35;4.00;;;2.15;;
52432;SDS011;38352;53.244;6.594;2022-07-11T15:11:20;2.58;;;1.92;;
52432;SDS011;38352;53.244;6.594;2022-07-11T15:14:05;2.67;;;1.77;;
52432;SDS011;38352;53.244;6.594;2022-07-11T15:16:32;3.03;;;2.00;;
52432;SDS011;38352;53.244;6.594;2022-07-11T15:19:02;2.40;;;1.60;;
52432;SDS011;38352;53.244;6.594;2022-07-11T15:21:28;3.67;;;1.80;;
52432;SDS011;38352;53.244;6.594;2022-07-11T15:23:55;2.13;;;1.40;;
52432;SDS011;38352;53.244;6.594;2022-07-11T15:26:21;4.90;;;2.08;;
52432;SDS011;38352;53.244;6.594;2022-07-11T15:28:48;4.35;;;2.00;;
52432;SDS011;38352;53.244;6.594;2022-07-11T15:31:14;2.40;;;1.80;;
52432;SDS011;38352;53.244;6.594;2022-07-11T15:33:41;2.75;;;1.63;;
52432;SDS011;38352;53.244;6.594;2022-07-11T15:36:09;2.88;;;1.65;;